sensor_id;sensor_type;location;lat;lon;timestamp;pressure;altitude;pressure_sealevel;temperature;humidity
51239;BME280;38154;47.548;18.828;2024-02-28T00:01:21;98720.63;;;10.29;100.00
51239;BME280;38154;47.548;18.828;2024-02-28T00:03:46;98712.81;;;10.28;100.00
51239;BME280;38154;47.548;18.828;2024-02-28T00:06:12;98720.63;;;10.23;100.00
51239;BME280;38154;47.548;18.828;2024-02-28T00:08:38;98718.88;;;10.22;100.00
51239;BME280;38154;47.548;18.828;2024-02-28T00:11:03;98715.41;;;10.14;100.00
51239;BME280;38154;47.548;18.828;2024-02-28T00:13:29;98721.44;;;10.03;100.00
51239;BME280;38154;47.548;18.828;2024-02-28T00:15:55;98721.44;;;9.96;100.00
51239;BME280;38154;47.548;18.828;2024-02-28T00:18:20;98717.94;;;9.91;100.00
51239;BME280;38154;47.548;18.828;2024-02-28T00:20:46;98722.25;;;9.84;100.00
51239;BME280;38154;47.548;18.828;2024-02-28T00:23:11;98717.88;;;9.78;100.00
51239;BME280;38154;47.548;18.828;2024-02-28T00:25:37;98719.63;;;9.79;100.00
51239;BME280;38154;47.548;18.828;2024-02-28T00:28:03;98716.12;;;9.73;100.00
51239;BME280;38154;47.548;18.828;2024-02-28T00:30:28;98703.97;;;9.72;100.00
51239;BME280;38154;47.548;18.828;2024-02-28T00:32:54;98704.84;;;9.77;100.00
51239;BME280;38154;47.548;18.828;2024-02-28T00:35:20;98713.59;;;10.02;100.00
51239;BME280;38154;47.548;18.828;2024-02-28T00:37:45;98709.31;;;10.30;100.00
51239;BME280;38154;47.548;18.828;2024-02-28T00:40:11;98700.69;;;10.48;100.00
51239;BME280;38154;47.548;18.828;2024-02-28T00:42:37;98713.72;;;10.61;100.00
51239;BME280;38154;47.548;18.828;2024-02-28T00:45:03;98705.06;;;10.49;100.00
51239;BME280;38154;47.548;18.828;2024-02-28T00:47:29;98707.59;;;10.23;100.00
51239;BME280;38154;47.548;18.828;2024-02-28T00:49:54;98713.63;;;10.05;100.00
51239;BME280;38154;47.548;18.828;2024-02-28T00:52:20;98709.25;;;9.95;100.00
51239;BME280;38154;47.548;18.828;2024-02-28T00:54:45;98708.41;;;9.94;100.00
51239;BME280;38154;47.548;18.828;2024-02-28T00:57:11;98710.97;;;9.90;100.00
51239;BME280;38154;47.548;18.828;2024-02-28T00:59:37;98705.72;;;9.82;100.00
51239;BME280;38154;47.548;18.828;2024-02-28T01:02:02;98706.63;;;9.81;100.00
51239;BME280;38154;47.548;18.828;2024-02-28T01:04:28;98708.34;;;9.74;100.00
51239;BME280;38154;47.548;18.828;2024-02-28T01:06:54;98715.28;;;9.77;100.00
51239;BME280;38154;47.548;18.828;2024-02-28T01:09:21;98712.69;;;9.74;100.00
51239;BME280;38154;47.548;18.828;2024-02-28T01:11:47;98711.81;;;9.76;100.00
51239;BME280;38154;47.548;18.828;2024-02-28T01:14:14;98721.37;;;9.79;100.00
51239;BME280;38154;47.548;18.828;2024-02-28T01:16:40;98730.09;;;9.87;100.00
51239;BME280;38154;47.548;18.828;2024-02-28T01:19:06;98729.25;;;10.07;100.00
51239;BME280;38154;47.548;18.828;2024-02-28T01:21:31;98733.66;;;10.28;100.00
51239;BME280;38154;47.548;18.828;2024-02-28T01:23:57;98733.69;;;10.38;100.00
51239;BME280;38154;47.548;18.828;2024-02-28T01:26:23;98736.34;;;10.48;100.00
51239;BME280;38154;47.548;18.828;2024-02-28T01:28:49;98730.25;;;10.58;100.00
51239;BME280;38154;47.548;18.828;2024-02-28T01:31:15;98733.72;;;10.62;100.00
51239;BME280;38154;47.548;18.828;2024-02-28T01:33:41;98720.69;;;10.68;100.00
51239;BME280;38154;47.548;18.828;2024-02-28T01:36:07;98727.63;;;10.75;100.00
51239;BME280;38154;47.548;18.828;2024-02-28T01:38:32;98727.66;;;10.76;100.00
51239;BME280;38154;47.548;18.828;2024-02-28T01:40:58;98716.31;;;10.79;100.00
51239;BME280;38154;47.548;18.828;2024-02-28T01:43:24;98719.81;;;10.84;100.00
51239;BME280;38154;47.548;18.828;2024-02-28T01:45:49;98720.69;;;10.83;100.00
51239;BME280;38154;47.548;18.828;2024-02-28T01:48:15;98712.84;;;10.79;100.00
51239;BME280;38154;47.548;18.828;2024-02-28T01:50:41;98713.75;;;10.73;100.00
51239;BME280;38154;47.548;18.828;2024-02-28T01:53:08;98700.69;;;10.77;100.00
51239;BME280;38154;47.548;18.828;2024-02-28T01:55:38;98705.03;;;10.75;100.00
51239;BME280;38154;47.548;18.828;2024-02-28T01:58:04;98702.44;;;10.63;100.00
51239;BME280;38154;47.548;18.828;2024-02-28T02:00:33;98716.34;;;10.62;100.00
51239;BME280;38154;47.548;18.828;2024-02-28T02:03:02;98709.41;;;10.46;100.00
51239;BME280;38154;47.548;18.828;2024-02-28T02:05:28;98706.72;;;10.29;100.00
51239;BME280;38154;47.548;18.828;2024-02-28T02:07:54;98708.44;;;10.16;100.00
51239;BME280;38154;47.548;18.828;2024-02-28T02:10:21;98716.22;;;10.07;100.00
51239;BME280;38154;47.548;18.828;2024-02-28T02:12:46;98717.94;;;9.92;100.00
51239;BME280;38154;47.548;18.828;2024-02-28T02:15:12;98723.16;;;9.89;100.00
51239;BME280;38154;47.548;18.828;2024-02-28T02:17:38;98737.88;;;9.90;100.00
51239;BME280;38154;47.548;18.828;2024-02-28T02:20:03;98736.16;;;9.88;100.00
51239;BME280;38154;47.548;18.828;2024-02-28T02:22:34;98741.34;;;9.81;100.00
51239;BME280;38154;47.548;18.828;2024-02-28T02:25:02;98733.50;;;9.74;100.00
51239;BME280;38154;47.548;18.828;2024-02-28T02:27:28;98736.09;;;9.71;100.00
51239;BME280;38154;47.548;18.828;2024-02-28T02:29:53;98740.38;;;9.58;100.00
51239;BME280;38154;47.548;18.828;2024-02-28T02:32:19;98744.72;;;9.56;100.00
51239;BME280;38154;47.548;18.828;2024-02-28T02:34:45;98737.78;;;9.61;100.00
51239;BME280;38154;47.548;18.828;2024-02-28T02:37:11;98731.62;;;9.48;100.00
51239;BME280;38154;47.548;18.828;2024-02-28T02:39:36;98743.78;;;9.46;100.00
51239;BME280;38154;47.548;18.828;2024-02-28T02:42:02;98740.31;;;9.42;100.00
51239;BME280;38154;47.548;18.828;2024-02-28T02:44:28;98735.06;;;9.36;100.00
51239;BME280;38154;47.548;18.828;2024-02-28T02:46:54;98733.34;;;9.35;100.00
51239;BME280;38154;47.548;18.828;2024-02-28T02:49:19;98729.03;;;9.40;100.00
51239;BME280;38154;47.548;18.828;2024-02-28T02:51:45;98739.41;;;9.36;100.00
51239;BME280;38154;47.548;18.828;2024-02-28T02:54:10;98737.59;;;9.22;100.00
51239;BME280;38154;47.548;18.828;2024-02-28T02:56:36;98728.87;;;9.16;100.00
51239;BME280;38154;47.548;18.828;2024-02-28T02:59:02;98735.78;;;9.10;100.00
51239;BME280;38154;47.548;18.828;2024-02-28T03:01:28;98744.44;;;9.09;100.00
51239;BME280;38154;47.548;18.828;2024-02-28T03:03:53;98748.72;;;9.03;100.00
51239;BME280;38154;47.548;18.828;2024-02-28T03:06:19;98752.16;;;8.99;100.00
51239;BME280;38154;47.548;18.828;2024-02-28T03:08:45;98750.41;;;8.98;100.00
51239;BME280;38154;47.548;18.828;2024-02-28T03:11:10;98753.91;;;8.98;100.00
51239;BME280;38154;47.548;18.828;2024-02-28T03:13:36;98751.31;;;8.98;100.00
51239;BME280;38154;47.548;18.828;2024-02-28T03:16:05;98755.69;;;9.07;100.00
51239;BME280;38154;47.548;18.828;2024-02-28T03:18:31;98768.69;;;9.05;100.00
51239;BME280;38154;47.548;18.828;2024-02-28T03:20:56;98755.69;;;9.07;100.00
51239;BME280;38154;47.548;18.828;2024-02-28T03:23:22;98762.62;;;9.09;100.00
51239;BME280;38154;47.548;18.828;2024-02-28T03:25:48;98762.66;;;9.11;100.00
51239;BME280;38154;47.548;18.828;2024-02-28T03:28:14;98767.81;;;9.08;100.00
51239;BME280;38154;47.548;18.828;2024-02-28T03:30:39;98769.50;;;9.01;100.00
51239;BME280;38154;47.548;18.828;2024-02-28T03:33:05;98760.00;;;9.03;100.00
51239;BME280;38154;47.548;18.828;2024-02-28T03:35:30;98762.59;;;9.00;100.00
51239;BME280;38154;47.548;18.828;2024-02-28T03:37:56;98762.62;;;9.09;100.00
51239;BME280;38154;47.548;18.828;2024-02-28T03:40:22;98770.41;;;9.06;100.00
51239;BME280;38154;47.548;18.828;2024-02-28T03:42:47;98775.59;;;9.05;100.00
51239;BME280;38154;47.548;18.828;2024-02-28T03:45:13;98775.66;;;9.11;100.00
51239;BME280;38154;47.548;18.828;2024-02-28T03:47:39;98774.84;;;9.17;100.00
51239;BME280;38154;47.548;18.828;2024-02-28T03:50:05;98779.16;;;9.15;100.00
51239;BME280;38154;47.548;18.828;2024-02-28T03:52:30;98768.75;;;9.15;100.00
51239;BME280;38154;47.548;18.828;2024-02-28T03:54:56;98777.41;;;9.10;100.00
51239;BME280;38154;47.548;18.828;2024-02-28T03:57:22;98772.19;;;9.09;100.00
51239;BME280;38154;47.548;18.828;2024-02-28T03:59:48;98773.00;;;9.05;100.00
51239;BME280;38154;47.548;18.828;2024-02-28T04:02:14;98783.44;;;9.09;100.00
51239;BME280;38154;47.548;18.828;2024-02-28T04:04:39;98775.59;;;9.00;100.00
51239;BME280;38154;47.548;18.828;2024-02-28T04:07:05;98779.03;;;8.98;100.00
51239;BME280;38154;47.548;18.828;2024-02-28T04:09:31;98780.81;;;9.02;100.00
51239;BME280;38154;47.548;18.828;2024-02-28T04:11:57;98778.22;;;9.03;100.00
51239;BME280;38154;47.548;18.828;2024-02-28T04:14:22;98778.19;;;8.99;100.00
51239;BME280;38154;47.548;18.828;2024-02-28T04:16:48;98782.50;;;9.00;100.00
51239;BME280;38154;47.548;18.828;2024-02-28T04:19:15;98784.25;;;9.01;100.00
51239;BME280;38154;47.548;18.828;2024-02-28T04:21:41;98779.91;;;8.97;100.00
51239;BME280;38154;47.548;18.828;2024-02-28T04:24:07;98779.81;;;8.89;100.00
51239;BME280;38154;47.548;18.828;2024-02-28T04:26:34;98781.50;;;8.82;100.00
51239;BME280;38154;47.548;18.828;2024-02-28T04:29:00;98782.34;;;8.81;100.00
51239;BME280;38154;47.548;18.828;2024-02-28T04:31:28;98781.56;;;8.88;100.00
51239;BME280;38154;47.548;18.828;2024-02-28T04:33:54;98775.50;;;8.91;100.00
51239;BME280;38154;47.548;18.828;2024-02-28T04:36:19;98780.72;;;8.94;100.00
51239;BME280;38154;47.548;18.828;2024-02-28T04:38:45;98786.78;;;8.91;100.00
51239;BME280;38154;47.548;18.828;2024-02-28T04:41:10;98778.97;;;8.93;100.00
51239;BME280;38154;47.548;18.828;2024-02-28T04:43:36;98782.41;;;8.87;100.00
51239;BME280;38154;47.548;18.828;2024-02-28T04:46:02;98786.72;;;8.82;100.00
51239;BME280;38154;47.548;18.828;2024-02-28T04:48:28;98785.88;;;8.88;100.00
51239;BME280;38154;47.548;18.828;2024-02-28T04:50:54;98798.03;;;8.90;100.00
51239;BME280;38154;47.548;18.828;2024-02-28T04:53:19;98789.41;;;8.95;100.00
51239;BME280;38154;47.548;18.828;2024-02-28T04:55:45;98796.25;;;8.86;100.00
51239;BME280;38154;47.548;18.828;2024-02-28T04:58:11;98792.81;;;8.87;100.00
51239;BME280;38154;47.548;18.828;2024-02-28T05:00:37;98797.19;;;8.91;100.00
51239;BME280;38154;47.548;18.828;2024-02-28T05:03:02;98798.06;;;8.94;100.00
51239;BME280;38154;47.548;18.828;2024-02-28T05:05:28;98797.16;;;8.88;100.00
51239;BME280;38154;47.548;18.828;2024-02-28T05:07:54;98795.34;;;8.80;100.00
51239;BME280;38154;47.548;18.828;2024-02-28T05:10:19;98799.72;;;8.82;100.00
51239;BME280;38154;47.548;18.828;2024-02-28T05:12:45;98804.03;;;8.80;100.00
51239;BME280;38154;47.548;18.828;2024-02-28T05:15:10;98802.31;;;8.82;100.00
51239;BME280;38154;47.548;18.828;2024-02-28T05:17:36;98811.00;;;8.86;100.00
51239;BME280;38154;47.548;18.828;2024-02-28T05:20:02;98810.94;;;8.78;100.00
51239;BME280;38154;47.548;18.828;2024-02-28T05:22:27;98808.28;;;8.72;100.00
51239;BME280;38154;47.548;18.828;2024-02-28T05:24:53;98807.44;;;8.76;100.00
51239;BME280;38154;47.548;18.828;2024-02-28T05:27:19;98814.38;;;8.74;100.00
51239;BME280;38154;47.548;18.828;2024-02-28T05:29:45;98826.47;;;8.70;100.00
51239;BME280;38154;47.548;18.828;2024-02-28T05:32:10;98824.69;;;8.66;100.00
51239;BME280;38154;47.548;18.828;2024-02-28T05:34:37;98832.53;;;8.71;100.00
51239;BME280;38154;47.548;18.828;2024-02-28T05:37:02;98829.88;;;8.68;100.00
51239;BME280;38154;47.548;18.828;2024-02-28T05:39:28;98843.81;;;8.73;100.00
51239;BME280;38154;47.548;18.828;2024-02-28T05:41:56;98849.87;;;8.72;100.00
51239;BME280;38154;47.548;18.828;2024-02-28T05:44:23;98845.56;;;8.76;100.00
51239;BME280;38154;47.548;18.828;2024-02-28T05:46:50;98846.41;;;8.70;100.00
51239;BME280;38154;47.548;18.828;2024-02-28T05:49:15;98845.50;;;8.69;100.00
51239;BME280;38154;47.548;18.828;2024-02-28T05:51:41;98842.87;;;8.66;100.00
51239;BME280;38154;47.548;18.828;2024-02-28T05:54:07;98839.47;;;8.72;100.00
51239;BME280;38154;47.548;18.828;2024-02-28T05:56:32;98838.62;;;8.76;100.00
51239;BME280;38154;47.548;18.828;2024-02-28T05:58:58;98843.84;;;8.76;100.00
51239;BME280;38154;47.548;18.828;2024-02-28T06:01:23;98835.13;;;8.71;100.00
51239;BME280;38154;47.548;18.828;2024-02-28T06:03:49;98838.62;;;8.76;100.00
51239;BME280;38154;47.548;18.828;2024-02-28T06:06:16;98840.31;;;8.71;100.00
51239;BME280;38154;47.548;18.828;2024-02-28T06:08:42;98845.59;;;8.77;100.00
51239;BME280;38154;47.548;18.828;2024-02-28T06:11:08;98846.50;;;8.81;100.00
51239;BME280;38154;47.548;18.828;2024-02-28T06:13:35;98845.66;;;8.83;100.00
51239;BME280;38154;47.548;18.828;2024-02-28T06:16:01;98849.97;;;8.84;100.00
51239;BME280;38154;47.548;18.828;2024-02-28T06:18:27;98849.97;;;8.83;100.00
51239;BME280;38154;47.548;18.828;2024-02-28T06:20:56;98847.41;;;8.87;100.00
51239;BME280;38154;47.548;18.828;2024-02-28T06:23:22;98849.22;;;8.91;100.00
51239;BME280;38154;47.548;18.828;2024-02-28T06:25:47;98853.50;;;8.91;100.00
51239;BME280;38154;47.548;18.828;2024-02-28T06:28:13;98857.00;;;8.93;100.00
51239;BME280;38154;47.548;18.828;2024-02-28T06:30:39;98859.66;;;8.98;100.00
51239;BME280;38154;47.548;18.828;2024-02-28T06:33:04;98863.97;;;8.97;100.00
51239;BME280;38154;47.548;18.828;2024-02-28T06:35:30;98861.41;;;9.00;100.00
51239;BME280;38154;47.548;18.828;2024-02-28T06:37:56;98857.16;;;9.12;100.00
51239;BME280;38154;47.548;18.828;2024-02-28T06:40:21;98862.38;;;9.15;100.00
51239;BME280;38154;47.548;18.828;2024-02-28T06:42:47;98855.56;;;9.26;100.00
51239;BME280;38154;47.548;18.828;2024-02-28T06:45:12;98866.97;;;9.42;100.00
51239;BME280;38154;47.548;18.828;2024-02-28T06:47:38;98865.34;;;9.59;100.00
51239;BME280;38154;47.548;18.828;2024-02-28T06:50:05;98864.63;;;9.88;100.00
51239;BME280;38154;47.548;18.828;2024-02-28T06:52:31;98867.41;;;10.25;100.00
51239;BME280;38154;47.548;18.828;2024-02-28T06:54:57;98867.56;;;10.62;100.00
51239;BME280;38154;47.548;18.828;2024-02-28T06:57:23;98875.50;;;11.28;100.00
51239;BME280;38154;47.548;18.828;2024-02-28T06:59:49;98873.66;;;12.09;100.00
51239;BME280;38154;47.548;18.828;2024-02-28T07:02:14;98890.75;;;12.83;100.00
51239;BME280;38154;47.548;18.828;2024-02-28T07:04:40;98890.19;;;13.63;100.00
51239;BME280;38154;47.548;18.828;2024-02-28T07:07:07;98899.03;;;14.36;98.66
51239;BME280;38154;47.548;18.828;2024-02-28T07:09:33;98899.41;;;15.34;93.14
51239;BME280;38154;47.548;18.828;2024-02-28T07:11:59;98899.19;;;16.01;87.37
51239;BME280;38154;47.548;18.828;2024-02-28T07:14:26;98897.81;;;16.25;84.98
51239;BME280;38154;47.548;18.828;2024-02-28T07:16:52;98903.19;;;16.64;82.01
51239;BME280;38154;47.548;18.828;2024-02-28T07:19:17;98901.72;;;17.31;77.60
51239;BME280;38154;47.548;18.828;2024-02-28T07:21:44;98902.66;;;18.00;73.14
51239;BME280;38154;47.548;18.828;2024-02-28T07:24:09;98911.75;;;18.52;69.67
51239;BME280;38154;47.548;18.828;2024-02-28T07:26:35;98916.19;;;18.80;67.57
51239;BME280;38154;47.548;18.828;2024-02-28T07:29:01;98918.94;;;18.47;68.35
51239;BME280;38154;47.548;18.828;2024-02-28T07:31:26;98921.78;;;18.40;67.51
51239;BME280;38154;47.548;18.828;2024-02-28T07:33:52;98933.09;;;17.77;70.24
51239;BME280;38154;47.548;18.828;2024-02-28T07:36:18;98927.37;;;18.29;68.61
51239;BME280;38154;47.548;18.828;2024-02-28T07:38:44;98932.00;;;18.52;66.39
51239;BME280;38154;47.548;18.828;2024-02-28T07:41:10;98936.22;;;18.26;68.28
51239;BME280;38154;47.548;18.828;2024-02-28T07:43:35;98930.84;;;18.62;66.23
51239;BME280;38154;47.548;18.828;2024-02-28T07:46:07;98937.56;;;18.72;64.49
51239;BME280;38154;47.548;18.828;2024-02-28T07:48:34;98943.50;;;19.39;62.82
51239;BME280;38154;47.548;18.828;2024-02-28T07:50:59;98941.69;;;20.21;58.67
51239;BME280;38154;47.548;18.828;2024-02-28T07:53:25;98940.84;;;20.69;56.87
51239;BME280;38154;47.548;18.828;2024-02-28T07:55:50;98947.88;;;20.94;56.74
51239;BME280;38154;47.548;18.828;2024-02-28T07:58:16;98947.91;;;21.82;53.64
51239;BME280;38154;47.548;18.828;2024-02-28T08:00:42;98951.84;;;21.94;52.29
51239;BME280;38154;47.548;18.828;2024-02-28T08:03:09;98946.25;;;22.62;50.70
51239;BME280;38154;47.548;18.828;2024-02-28T08:05:35;98954.91;;;22.86;49.74
51239;BME280;38154;47.548;18.828;2024-02-28T08:08:05;98953.19;;;22.85;48.47
51239;BME280;38154;47.548;18.828;2024-02-28T08:10:30;98950.38;;;22.69;49.43
51239;BME280;38154;47.548;18.828;2024-02-28T08:12:56;98946.69;;;23.11;48.17
51239;BME280;38154;47.548;18.828;2024-02-28T08:15:22;98955.94;;;23.03;48.94
51239;BME280;38154;47.548;18.828;2024-02-28T08:17:47;98954.78;;;23.27;47.75
51239;BME280;38154;47.548;18.828;2024-02-28T08:20:13;98963.19;;;23.74;47.37
51239;BME280;38154;47.548;18.828;2024-02-28T08:22:39;98963.00;;;23.59;46.76
51239;BME280;38154;47.548;18.828;2024-02-28T08:25:04;98969.12;;;23.61;46.40
51239;BME280;38154;47.548;18.828;2024-02-28T08:27:30;98970.97;;;23.23;47.14
51239;BME280;38154;47.548;18.828;2024-02-28T08:29:56;98968.00;;;22.51;48.64
51239;BME280;38154;47.548;18.828;2024-02-28T08:32:21;98966.03;;;22.75;47.64
51239;BME280;38154;47.548;18.828;2024-02-28T08:34:47;98973.31;;;22.51;47.84
51239;BME280;38154;47.548;18.828;2024-02-28T08:37:13;98972.19;;;22.36;49.04
51239;BME280;38154;47.548;18.828;2024-02-28T08:39:38;98972.59;;;22.48;48.35
51239;BME280;38154;47.548;18.828;2024-02-28T08:42:04;98974.44;;;22.85;46.19
51239;BME280;38154;47.548;18.828;2024-02-28T08:44:30;98974.56;;;23.03;45.17
51239;BME280;38154;47.548;18.828;2024-02-28T08:46:56;98967.19;;;22.89;45.93
51239;BME280;38154;47.548;18.828;2024-02-28T08:49:21;98970.03;;;23.24;45.94
51239;BME280;38154;47.548;18.828;2024-02-28T08:51:47;98970.69;;;23.65;44.83
51239;BME280;38154;47.548;18.828;2024-02-28T08:54:13;98970.25;;;23.19;44.95
51239;BME280;38154;47.548;18.828;2024-02-28T08:56:38;98962.31;;;23.18;45.06
51239;BME280;38154;47.548;18.828;2024-02-28T08:59:04;98961.00;;;22.88;45.69
51239;BME280;38154;47.548;18.828;2024-02-28T09:01:30;98960.22;;;22.47;47.15
51239;BME280;38154;47.548;18.828;2024-02-28T09:03:56;98955.22;;;21.77;46.37
51239;BME280;38154;47.548;18.828;2024-02-28T09:06:21;98952.75;;;21.51;48.12
51239;BME280;38154;47.548;18.828;2024-02-28T09:08:47;98952.97;;;21.44;48.34
51239;BME280;38154;47.548;18.828;2024-02-28T09:11:13;98954.44;;;21.07;50.25
51239;BME280;38154;47.548;18.828;2024-02-28T09:13:39;98953.69;;;21.26;49.96
51239;BME280;38154;47.548;18.828;2024-02-28T09:16:04;98956.59;;;21.20;50.61
51239;BME280;38154;47.548;18.828;2024-02-28T09:18:30;98961.50;;;21.30;54.59
51239;BME280;38154;47.548;18.828;2024-02-28T09:20:56;98958.84;;;22.38;50.84
51239;BME280;38154;47.548;18.828;2024-02-28T09:23:21;98971.19;;;23.18;46.59
51239;BME280;38154;47.548;18.828;2024-02-28T09:25:47;98967.66;;;23.37;45.53
51239;BME280;38154;47.548;18.828;2024-02-28T09:28:12;98966.13;;;22.53;47.36
51239;BME280;38154;47.548;18.828;2024-02-28T09:30:41;98966.31;;;21.65;48.80
51239;BME280;38154;47.548;18.828;2024-02-28T09:33:07;98965.22;;;20.79;51.11
51239;BME280;38154;47.548;18.828;2024-02-28T09:35:34;98963.91;;;21.13;53.35
51239;BME280;38154;47.548;18.828;2024-02-28T09:38:01;98968.12;;;22.48;44.40
51239;BME280;38154;47.548;18.828;2024-02-28T09:40:27;98968.72;;;22.94;43.91
51239;BME280;38154;47.548;18.828;2024-02-28T09:42:54;98967.62;;;22.98;43.34
51239;BME280;38154;47.548;18.828;2024-02-28T09:45:21;98972.03;;;23.38;41.48
51239;BME280;38154;47.548;18.828;2024-02-28T09:47:48;98982.34;;;23.63;40.52
51239;BME280;38154;47.548;18.828;2024-02-28T09:50:14;98979.44;;;23.31;40.94
51239;BME280;38154;47.548;18.828;2024-02-28T09:52:40;98983.22;;;22.87;43.93
51239;BME280;38154;47.548;18.828;2024-02-28T09:55:06;98976.38;;;23.21;42.08
51239;BME280;38154;47.548;18.828;2024-02-28T09:57:32;98976.62;;;22.96;41.52
51239;BME280;38154;47.548;18.828;2024-02-28T09:59:59;98982.47;;;23.23;41.49
51239;BME280;38154;47.548;18.828;2024-02-28T10:02:25;98987.66;;;23.26;40.90
51239;BME280;38154;47.548;18.828;2024-02-28T10:04:52;98993.78;;;24.01;40.25
51239;BME280;38154;47.548;18.828;2024-02-28T10:07:18;98993.97;;;23.98;39.65
51239;BME280;38154;47.548;18.828;2024-02-28T10:09:43;98988.41;;;23.47;40.94
51239;BME280;38154;47.548;18.828;2024-02-28T10:12:09;98999.47;;;23.57;40.95
51239;BME280;38154;47.548;18.828;2024-02-28T10:14:35;98985.34;;;22.79;42.77
51239;BME280;38154;47.548;18.828;2024-02-28T10:17:00;98982.72;;;22.58;42.80
51239;BME280;38154;47.548;18.828;2024-02-28T10:19:26;98983.59;;;21.97;43.49
51239;BME280;38154;47.548;18.828;2024-02-28T10:21:52;98992.47;;;22.17;43.48
51239;BME280;38154;47.548;18.828;2024-02-28T10:24:18;98995.34;;;22.12;43.71
51239;BME280;38154;47.548;18.828;2024-02-28T10:26:44;98995.41;;;21.44;44.95
51239;BME280;38154;47.548;18.828;2024-02-28T10:29:09;98994.72;;;21.63;45.07
51239;BME280;38154;47.548;18.828;2024-02-28T10:31:35;98991.78;;;21.91;45.69
51239;BME280;38154;47.548;18.828;2024-02-28T10:34:01;98999.91;;;22.09;43.68
51239;BME280;38154;47.548;18.828;2024-02-28T10:36:27;99005.91;;;21.25;44.77
51239;BME280;38154;47.548;18.828;2024-02-28T10:38:55;99000.94;;;20.69;47.75
51239;BME280;38154;47.548;18.828;2024-02-28T10:41:21;99008.47;;;20.54;48.04
51239;BME280;38154;47.548;18.828;2024-02-28T10:43:48;99005.66;;;20.84;47.75
51239;BME280;38154;47.548;18.828;2024-02-28T10:46:14;99010.94;;;21.31;46.01
51239;BME280;38154;47.548;18.828;2024-02-28T10:48:39;99008.66;;;20.99;45.95
51239;BME280;38154;47.548;18.828;2024-02-28T10:51:05;99000.94;;;20.69;47.05
51239;BME280;38154;47.548;18.828;2024-02-28T10:53:41;99001.16;;;20.86;47.78
51239;BME280;38154;47.548;18.828;2024-02-28T10:56:09;98995.84;;;20.86;46.75
51239;BME280;38154;47.548;18.828;2024-02-28T10:58:36;98996.00;;;21.07;48.28
51239;BME280;38154;47.548;18.828;2024-02-28T11:01:02;99001.09;;;21.59;45.45
51239;BME280;38154;47.548;18.828;2024-02-28T11:03:28;98997.72;;;21.98;44.10
51239;BME280;38154;47.548;18.828;2024-02-28T11:05:55;99003.97;;;22.79;42.65
51239;BME280;38154;47.548;18.828;2024-02-28T11:08:22;98999.53;;;22.59;42.29
51239;BME280;38154;47.548;18.828;2024-02-28T11:10:55;98999.53;;;22.79;43.31
51239;BME280;38154;47.548;18.828;2024-02-28T11:13:21;98990.84;;;22.95;42.56
51239;BME280;38154;47.548;18.828;2024-02-28T11:15:47;99005.94;;;22.94;42.51
51239;BME280;38154;47.548;18.828;2024-02-28T11:18:13;98998.75;;;22.36;44.28
51239;BME280;38154;47.548;18.828;2024-02-28T11:20:38;98995.59;;;22.27;44.48
51239;BME280;38154;47.548;18.828;2024-02-28T11:23:07;98993.44;;;22.16;44.84
51239;BME280;38154;47.548;18.828;2024-02-28T11:25:34;98998.06;;;21.44;46.01
51239;BME280;38154;47.548;18.828;2024-02-28T11:27:59;98995.63;;;20.92;47.48
51239;BME280;38154;47.548;18.828;2024-02-28T11:30:25;98991.28;;;20.91;47.02
51239;BME280;38154;47.548;18.828;2024-02-28T11:32:54;98991.44;;;21.10;48.86
51239;BME280;38154;47.548;18.828;2024-02-28T11:35:20;98992.19;;;21.36;46.99
51239;BME280;38154;47.548;18.828;2024-02-28T11:37:46;98985.19;;;20.88;49.06
51239;BME280;38154;47.548;18.828;2024-02-28T11:40:13;98980.19;;;20.80;47.14
51239;BME280;38154;47.548;18.828;2024-02-28T11:42:38;98983.56;;;20.60;47.90
51239;BME280;38154;47.548;18.828;2024-02-28T11:45:10;98986.06;;;20.14;49.78
51239;BME280;38154;47.548;18.828;2024-02-28T11:47:36;98982.56;;;20.37;48.27
51239;BME280;38154;47.548;18.828;2024-02-28T11:50:02;98974.66;;;20.61;48.78
51239;BME280;38154;47.548;18.828;2024-02-28T11:52:31;98979.50;;;20.75;49.24
51239;BME280;38154;47.548;18.828;2024-02-28T11:54:57;98976.34;;;20.65;49.70
51239;BME280;38154;47.548;18.828;2024-02-28T11:57:23;98972.87;;;20.38;49.30
51239;BME280;38154;47.548;18.828;2024-02-28T11:59:49;98971.37;;;20.80;48.80
51239;BME280;38154;47.548;18.828;2024-02-28T12:02:15;98969.88;;;20.72;48.12
51239;BME280;38154;47.548;18.828;2024-02-28T12:04:41;98969.28;;;20.14;49.49
51239;BME280;38154;47.548;18.828;2024-02-28T12:07:07;98969.50;;;20.08;49.58
51239;BME280;38154;47.548;18.828;2024-02-28T12:09:33;98972.56;;;19.95;50.16
51239;BME280;38154;47.548;18.828;2024-02-28T12:12:02;98970.28;;;19.85;50.23
51239;BME280;38154;47.548;18.828;2024-02-28T12:14:32;98968.31;;;19.63;51.21
51239;BME280;38154;47.548;18.828;2024-02-28T12:16:58;98965.88;;;19.28;52.98
51239;BME280;38154;47.548;18.828;2024-02-28T12:19:24;98970.44;;;18.94;53.90
51239;BME280;38154;47.548;18.828;2024-02-28T12:21:50;98962.06;;;18.46;54.16
51239;BME280;38154;47.548;18.828;2024-02-28T12:24:15;98961.62;;;18.32;55.77
51239;BME280;38154;47.548;18.828;2024-02-28T12:26:41;98965.50;;;18.19;56.19
51239;BME280;38154;47.548;18.828;2024-02-28T12:29:07;98954.00;;;18.20;57.51
51239;BME280;38154;47.548;18.828;2024-02-28T12:31:33;98967.25;;;18.18;57.45
51239;BME280;38154;47.548;18.828;2024-02-28T12:33:58;98961.44;;;18.05;57.34
51239;BME280;38154;47.548;18.828;2024-02-28T12:36:24;98964.72;;;18.15;58.33
51239;BME280;38154;47.548;18.828;2024-02-28T12:38:50;98958.34;;;17.88;58.84
51239;BME280;38154;47.548;18.828;2024-02-28T12:41:16;98959.34;;;17.82;59.17